Time;durP1;ratioP1;P1;durP2;ratioP2;P2;SDS_P1;SDS_P2;PMS_P1;PMS_P2;Temp;Humidity;BMP_temperature;BMP_pressure;BME280_temperature;BME280_humidity;BME280_pressure;Samples;Min_cycle;Max_cycle;Signal;HPM_P1;HPM_P2
2022/06/28 02:29:55;;;;;;;5.63;4.28;;;;;;;23.99;75.66;99872.53;6295517;22;20027;-96
2022/06/28 02:32:21;;;;;;;5.18;4.50;;;;;;;23.93;76.26;99868.25;6157059;23;20442;-84
2022/06/28 02:40:24;;;;;;;5.68;4.75;;;;;;;23.90;76.16;99889.88;6183379;23;20013;-84
2022/06/28 02:42:57;;;;;;;6.95;4.60;;;;;;;23.89;75.63;99870.63;6133671;23;20009;-84
2022/06/28 02:45:24;;;;;;;5.10;4.47;;;;;;;23.71;76.17;99866.44;6157127;23;20484;-84
2022/06/28 02:47:50;;;;;;;6.07;4.60;;;;;;;23.74;76.39;99865.34;6183610;23;20005;-84
2022/06/28 02:50:16;;;;;;;5.40;4.47;;;;;;;23.74;76.66;99853.28;6156724;23;20106;-84
2022/06/28 02:52:42;;;;;;;4.75;4.35;;;;;;;23.82;76.12;99854.97;6156287;23;20037;-84
2022/06/28 02:55:08;;;;;;;6.65;5.45;;;;;;;23.83;75.19;99850.84;6183040;23;20079;-84
2022/06/28 02:57:35;;;;;;;5.70;4.47;;;;;;;23.74;76.14;99842.69;6183167;23;20088;-84
2022/06/28 03:00:02;;;;;;;5.88;4.45;;;;;;;23.58;76.89;99846.50;6156326;23;20047;-84
2022/06/28 03:02:28;;;;;;;5.75;4.43;;;;;;;23.69;75.55;99843.56;6179962;23;20012;-85
2022/06/28 03:04:54;;;;;;;6.13;4.47;;;;;;;23.75;75.23;99852.75;6131671;23;20016;-84
2022/06/28 03:07:19;;;;;;;5.45;4.50;;;;;;;23.46;76.26;99867.72;6156352;23;20036;-84
2022/06/28 03:09:45;;;;;;;7.30;4.90;;;;;;;23.40;79.31;99864.16;6130324;23;20175;-84
2022/06/28 03:12:11;;;;;;;7.78;4.75;;;;;;;23.35;79.04;99859.31;6182766;23;20005;-84
2022/06/28 03:14:36;;;;;;;5.20;4.70;;;;;;;23.35;79.16;99874.25;6156620;23;20333;-84
2022/06/28 03:17:02;;;;;;;5.47;4.93;;;;;;;23.28;79.13;99885.38;6156497;23;20008;-84
2022/06/28 03:19:27;;;;;;;7.75;4.85;;;;;;;23.38;78.07;99898.66;6183263;23;20075;-84
2022/06/28 03:21:53;;;;;;;6.93;4.75;;;;;;;23.31;77.99;99902.06;6156332;23;20080;-85
2022/06/28 03:24:18;;;;;;;7.13;4.40;;;;;;;23.11;78.24;99923.09;6156447;23;19997;-84
2022/06/28 03:26:45;;;;;;;6.80;4.78;;;;;;;23.07;77.98;99933.16;6132029;23;20437;-85
2022/06/28 03:29:10;;;;;;;5.20;4.53;;;;;;;23.04;77.12;99962.50;6157299;23;20011;-84
2022/06/28 03:31:36;;;;;;;10.18;4.80;;;;;;;23.01;77.05;99986.91;6177241;23;20456;-85
2022/06/28 03:34:03;;;;;;;6.32;5.00;;;;;;;22.95;78.88;99989.03;6187703;23;20468;-84
2022/06/28 03:36:29;;;;;;;8.43;6.05;;;;;;;22.99;79.65;100000.84;6188019;23;20017;-84
2022/06/28 03:39:11;;;;;;;6.40;5.70;;;;;;;23.00;80.31;99999.56;6187943;23;20392;-85
2022/06/28 03:41:50;;;;;;;6.50;5.97;;;;;;;23.06;80.16;100005.94;6214401;23;20016;-84
2022/06/28 03:44:15;;;;;;;7.75;5.70;;;;;;;23.11;80.14;100019.28;6162796;23;20028;-85
2022/06/28 03:46:41;;;;;;;8.13;6.07;;;;;;;23.10;80.56;100022.63;6187921;23;20016;-84
2022/06/28 03:49:36;;;;;;;8.80;6.22;;;;;;;23.19;81.53;100036.47;6133943;23;20088;-83
2022/06/28 03:52:28;;;;;;;7.47;6.68;;;;;;;23.27;80.55;100036.66;6214678;23;20083;-83
2022/06/28 03:55:12;;;;;;;8.90;6.57;;;;;;;23.31;80.07;100020.94;6215121;23;20083;-84
2022/06/28 03:57:41;;;;;;;9.73;6.30;;;;;;;23.50;78.79;100026.72;6214504;23;20015;-84
2022/06/28 04:00:08;;;;;;;7.55;6.35;;;;;;;23.66;78.21;100034.31;6187665;23;20012;-84
2022/06/28 04:02:38;;;;;;;7.15;6.20;;;;;;;23.75;77.84;100039.66;6214692;23;20036;-84
2022/06/28 04:05:04;;;;;;;8.30;6.57;;;;;;;23.92;76.93;100045.19;6187960;23;20104;-84
2022/06/28 04:07:30;;;;;;;6.70;5.70;;;;;;;23.96;76.82;100039.97;6187928;23;20077;-84
2022/06/28 04:09:55;;;;;;;7.82;6.32;;;;;;;23.93;77.59;100036.16;6187547;23;20184;-84
2022/06/28 04:12:21;;;;;;;7.82;6.43;;;;;;;23.93;76.85;100027.66;6187798;23;20005;-84
2022/06/28 04:14:47;;;;;;;8.25;7.45;;;;;;;23.96;77.59;100023.75;6187485;23;20066;-84
2022/06/28 04:17:13;;;;;;;7.38;6.05;;;;;;;23.92;77.54;100026.13;6187920;23;20361;-84
2022/06/28 04:20:03;;;;;;;8.05;5.90;;;;;;;23.87;78.08;100009.16;6213976;23;20107;-84
2022/06/28 04:22:33;;;;;;;8.02;6.50;;;;;;;23.87;78.59;100023.31;6163254;23;20444;-84
2022/06/28 04:24:58;;;;;;;6.57;5.85;;;;;;;23.83;79.03;100017.97;6187419;23;20013;-84
2022/06/28 04:27:36;;;;;;;7.03;6.07;;;;;;;23.79;78.76;100023.16;6187779;23;20033;-84
2022/06/28 04:30:03;;;;;;;6.13;5.43;;;;;;;23.84;78.50;100022.34;6213890;23;20020;-84
2022/06/28 04:32:39;;;;;;;6.88;5.45;;;;;;;23.86;78.34;100016.88;6187655;23;20140;-84
2022/06/28 04:35:07;;;;;;;8.30;5.22;;;;;;;23.90;77.91;100013.78;6187393;23;20013;-84
2022/06/28 04:37:33;;;;;;;7.30;5.63;;;;;;;23.87;78.23;100003.50;6187139;23;20060;-84
2022/06/28 04:40:07;;;;;;;6.22;4.97;;;;;;;23.91;78.34;100010.41;6187127;23;20021;-84
2022/06/28 04:42:42;;;;;;;5.90;5.05;;;;;;;23.94;78.03;100009.34;6187677;23;20012;-84
2022/06/28 04:45:10;;;;;;;5.03;4.45;;;;;;;23.89;77.64;99998.84;6187190;23;20507;-84
2022/06/28 04:47:49;;;;;;;9.40;4.65;;;;;;;23.91;77.75;100001.91;6214068;23;20012;-84
2022/06/28 04:50:15;;;;;;;7.60;4.25;;;;;;;23.96;77.61;99994.66;6187507;23;20069;-84
2022/06/28 04:52:40;;;;;;;7.97;4.65;;;;;;;23.99;78.74;99994.34;6187184;23;20451;-84
2022/06/28 04:55:07;;;;;;;5.05;4.55;;;;;;;23.99;78.31;100000.03;6187290;23;20344;-84
2022/06/28 04:57:45;;;;;;;6.35;5.20;;;;;;;24.03;78.17;99997.66;6213889;23;20021;-84
2022/06/28 05:00:15;;;;;;;8.15;4.70;;;;;;;24.03;78.30;99992.00;6187115;23;20091;-84
2022/06/28 05:02:45;;;;;;;7.25;4.53;;;;;;;24.07;78.21;100006.63;6187396;23;20020;-84
2022/06/28 05:05:30;;;;;;;6.20;4.40;;;;;;;24.10;77.97;100011.22;6214410;23;20024;-85
2022/06/28 05:07:55;;;;;;;9.02;4.75;;;;;;;24.09;77.24;100004.06;6213677;23;20020;-84
2022/06/28 05:10:26;;;;;;;6.30;4.18;;;;;;;24.13;77.04;100010.19;6187247;23;20017;-85
2022/06/28 05:13:07;;;;;;;6.07;4.13;;;;;;;24.18;76.88;100005.03;6186838;23;20004;-84
2022/06/28 05:15:33;;;;;;;7.80;5.10;;;;;;;24.25;76.27;100005.19;6187531;23;20027;-84
2022/06/28 05:18:09;;;;;;;8.52;4.60;;;;;;;24.35;76.06;100008.41;6187048;23;20879;-84
2022/06/28 05:20:35;;;;;;;7.13;4.22;;;;;;;24.42;75.38;100024.84;6187253;23;20009;-84
2022/06/28 05:23:01;;;;;;;5.57;4.43;;;;;;;24.47;74.83;100026.81;6161928;23;20078;-85
2022/06/28 05:25:54;;;;;;;7.68;4.10;;;;;;;24.58;75.00;100032.38;6158888;23;20423;-84
2022/06/28 05:28:20;;;;;;;7.53;4.25;;;;;;;24.63;74.15;100044.97;6187190;23;20008;-84
2022/06/28 05:30:46;;;;;;;4.43;3.60;;;;;;;24.66;73.99;100049.56;6187061;23;20082;-84
2022/06/28 05:33:12;;;;;;;8.90;4.10;;;;;;;24.63;74.05;100044.97;6186939;23;20020;-84
2022/06/28 05:35:38;;;;;;;7.32;4.10;;;;;;;24.68;73.32;100050.56;6187020;23;20008;-84
2022/06/28 05:38:04;;;;;;;7.80;4.28;;;;;;;24.73;73.65;100063.13;6213325;23;20048;-84
2022/06/28 05:40:29;;;;;;;7.00;3.80;;;;;;;24.77;73.11;100067.22;6213688;23;20016;-84
2022/06/28 05:42:55;;;;;;;7.45;3.88;;;;;;;24.77;73.04;100067.22;6161898;23;20013;-84
2022/06/28 05:45:21;;;;;;;6.30;3.85;;;;;;;24.75;72.96;100069.78;6186931;23;20012;-84
2022/06/28 05:47:46;;;;;;;5.78;3.75;;;;;;;24.72;73.21;100073.72;6187026;23;20021;-84
2022/06/28 05:50:12;;;;;;;7.07;3.35;;;;;;;24.74;72.91;100067.50;6213586;23;20023;-85
2022/06/28 05:52:37;;;;;;;7.25;3.83;;;;;;;24.80;71.98;100074.63;6161647;23;20004;-84
2022/06/28 05:55:03;;;;;;;4.97;3.40;;;;;;;24.73;71.95;100061.06;6187036;23;20079;-84
2022/06/28 05:57:29;;;;;;;8.82;3.85;;;;;;;24.79;72.12;100075.94;6187111;23;20056;-84
2022/06/28 05:59:55;;;;;;;7.65;3.70;;;;;;;24.92;71.77;100073.22;6186726;23;20098;-84
2022/06/28 06:02:21;;;;;;;6.07;3.50;;;;;;;25.13;71.67;100076.31;6187196;23;20343;-84
2022/06/28 06:04:46;;;;;;;5.88;3.42;;;;;;;25.33;68.82;100080.66;6186821;23;20417;-85
2022/06/28 06:07:12;;;;;;;5.03;3.13;;;;;;;25.34;68.14;100079.38;6186869;23;20023;-85
2022/06/28 06:09:41;;;;;;;5.55;3.20;;;;;;;25.58;66.23;100082.13;6186448;23;20027;-85
2022/06/28 06:12:07;;;;;;;6.55;3.28;;;;;;;25.80;66.19;100083.84;6213149;23;20040;-85
2022/06/28 06:14:33;;;;;;;7.18;3.40;;;;;;;25.88;66.52;100099.69;6186659;23;20011;-84
2022/06/28 06:16:58;;;;;;;6.97;3.67;;;;;;;25.80;67.88;100112.25;6186673;23;20016;-84
2022/06/28 06:19:24;;;;;;;6.63;3.70;;;;;;;25.71;66.69;100107.75;6213075;23;20122;-85
2022/06/28 06:21:50;;;;;;;11.20;3.20;;;;;;;25.78;63.69;100118.47;6161866;23;20020;-85
2022/06/28 06:24:15;;;;;;;6.15;3.30;;;;;;;25.69;65.65;100116.03;6212772;23;20013;-85
2022/06/28 06:26:59;;;;;;;9.75;3.20;;;;;;;25.78;66.81;100114.88;6213196;23;20015;-84
2022/06/28 06:29:26;;;;;;;6.72;3.25;;;;;;;25.92;67.18;100122.88;6213262;23;20087;-85
2022/06/28 06:31:52;;;;;;;6.47;3.03;;;;;;;25.92;65.33;100124.97;6186218;23;20016;-85
2022/06/28 06:34:32;;;;;;;7.88;3.47;;;;;;;26.10;63.17;100126.22;6223638;23;20075;-85
2022/06/28 06:37:01;;;;;;;6.75;3.30;;;;;;;26.24;63.21;100124.97;6162334;23;20080;-84
2022/06/28 06:39:28;;;;;;;7.68;2.90;;;;;;;26.31;61.91;100115.78;6186207;23;20035;-85
2022/06/28 06:41:54;;;;;;;4.75;3.30;;;;;;;26.72;61.99;100121.75;6186129;23;20396;-84
2022/06/28 06:44:20;;;;;;;6.10;3.38;;;;;;;26.70;60.75;100127.19;6213115;23;20007;-84
2022/06/28 06:46:49;;;;;;;7.50;3.00;;;;;;;26.68;61.17;100115.63;6213374;23;20008;-84
2022/06/28 06:49:17;;;;;;;6.45;3.00;;;;;;;26.54;60.13;100136.81;6212752;23;20013;-84
2022/06/28 06:51:48;;;;;;;6.15;3.28;;;;;;;26.52;61.35;100122.38;6213231;23;20008;-84
2022/06/28 06:54:15;;;;;;;7.32;2.95;;;;;;;26.67;60.85;100131.16;6185733;23;20069;-84
2022/06/28 06:56:41;;;;;;;7.20;3.05;;;;;;;26.84;60.18;100125.94;6213201;23;20011;-85
2022/06/28 06:59:07;;;;;;;7.78;3.25;;;;;;;26.84;60.70;100130.84;6161194;23;20009;-85
2022/06/28 07:01:34;;;;;;;6.38;3.00;;;;;;;26.89;59.58;100127.88;6186219;23;20004;-84
2022/06/28 07:04:03;;;;;;;6.03;2.88;;;;;;;26.91;58.47;100130.19;6161102;23;20021;-84
2022/06/28 07:06:28;;;;;;;7.18;2.90;;;;;;;27.10;58.07;100118.66;6186503;23;20005;-85
2022/06/28 07:08:54;;;;;;;6.07;2.75;;;;;;;27.25;58.22;100130.25;6186198;23;20012;-84
2022/06/28 07:11:21;;;;;;;6.40;3.10;;;;;;;27.46;57.88;100125.34;6185838;23;20400;-84
2022/06/28 07:13:47;;;;;;;6.88;2.70;;;;;;;27.65;57.56;100123.13;6186247;23;20005;-84
2022/06/28 07:16:12;;;;;;;6.03;3.03;;;;;;;27.80;57.11;100133.91;6186209;23;20445;-84
2022/06/28 07:18:39;;;;;;;7.25;3.10;;;;;;;27.40;57.30;100127.56;6213301;23;19997;-84
2022/06/28 07:21:04;;;;;;;9.60;2.92;;;;;;;27.80;56.70;100128.22;6186282;23;20031;-85
2022/06/28 07:23:30;;;;;;;5.13;2.80;;;;;;;28.04;55.59;100121.41;6161663;23;20055;-84
2022/06/28 07:25:55;;;;;;;5.28;3.03;;;;;;;28.14;55.31;100123.25;6186235;23;20013;-84
2022/06/28 07:28:21;;;;;;;7.82;2.80;;;;;;;28.25;55.30;100122.19;6185967;23;20452;-85
2022/06/28 07:30:47;;;;;;;13.50;3.60;;;;;;;28.49;55.61;100104.69;6212919;23;20036;-84
2022/06/28 07:33:13;;;;;;;6.28;3.25;;;;;;;28.77;54.55;100117.44;6185895;23;20020;-84
2022/06/28 07:35:39;;;;;;;13.98;3.47;;;;;;;28.88;54.69;100108.53;6213565;23;20012;-84
2022/06/28 07:38:05;;;;;;;6.82;3.20;;;;;;;28.65;53.82;100117.72;6185705;23;20035;-84
2022/06/28 07:40:49;;;;;;;5.55;2.70;;;;;;;28.97;54.56;100116.59;6212678;23;20079;-83
2022/06/28 07:43:33;;;;;;;9.45;3.08;;;;;;;29.16;53.45;100120.69;6212863;23;20023;-83
2022/06/28 07:46:06;;;;;;;12.65;3.35;;;;;;;29.07;52.88;100126.16;6162583;23;20044;-84
2022/06/28 07:48:32;;;;;;;5.82;2.80;;;;;;;29.11;53.70;100120.84;6161594;23;20056;-83
2022/06/28 07:53:48;;;;;;;9.95;3.10;;;;;;;29.10;51.82;100133.59;6186289;23;20016;-83
2022/06/28 07:56:34;;;;;;;5.10;2.88;;;;;;;29.15;53.25;100126.97;6211679;23;20028;-84
2022/06/28 07:59:00;;;;;;;6.85;2.72;;;;;;;29.18;53.24;100131.53;6186028;23;20013;-83
2022/06/28 08:01:30;;;;;;;7.10;3.10;;;;;;;29.15;53.21;100139.16;6186047;23;20326;-83
2022/06/28 08:03:56;;;;;;;5.50;2.83;;;;;;;29.07;54.31;100149.03;6186185;23;20016;-83
2022/06/28 08:06:22;;;;;;;8.43;2.83;;;;;;;29.43;53.20;100163.28;6185741;23;20036;-84
2022/06/28 08:08:56;;;;;;;5.25;2.80;;;;;;;29.26;51.90;100158.06;6186061;23;20345;-83
2022/06/28 08:11:22;;;;;;;5.22;3.03;;;;;;;29.11;53.54;100166.56;6185435;23;20009;-83
2022/06/28 08:13:48;;;;;;;6.57;2.72;;;;;;;29.39;54.26;100163.66;6186265;23;20023;-84
2022/06/28 08:16:15;;;;;;;4.93;2.70;;;;;;;29.66;52.26;100164.13;6187660;23;20015;-83
2022/06/28 08:18:43;;;;;;;5.45;2.85;;;;;;;29.50;52.91;100156.84;6163129;23;20021;-84
2022/06/28 08:21:09;;;;;;;4.53;2.78;;;;;;;29.16;53.11;100157.03;6187518;23;20107;-83
2022/06/28 08:23:35;;;;;;;8.30;3.40;;;;;;;29.13;54.32;100164.66;6187306;23;20488;-84
2022/06/28 08:26:00;;;;;;;5.30;3.17;;;;;;;29.38;54.91;100159.28;6187337;23;20015;-83
2022/06/28 08:28:26;;;;;;;7.45;3.50;;;;;;;29.17;53.35;100158.56;6187562;23;20051;-83
2022/06/28 08:30:52;;;;;;;3.92;3.10;;;;;;;29.64;53.74;100161.81;6163066;23;20012;-83
2022/06/28 08:33:18;;;;;;;7.68;3.78;;;;;;;30.13;52.84;100163.66;6213937;23;20094;-84
2022/06/28 08:35:43;;;;;;;7.20;3.33;;;;;;;30.20;52.72;100148.63;6188176;23;20012;-84
2022/06/28 08:38:09;;;;;;;5.28;3.30;;;;;;;30.15;51.47;100148.78;6213818;23;20008;-83
2022/06/28 08:40:35;;;;;;;8.30;3.50;;;;;;;30.02;53.47;100144.00;6214681;23;20072;-83
2022/06/28 08:43:01;;;;;;;7.85;3.05;;;;;;;29.72;53.39;100143.94;6213833;23;20019;-83
2022/06/28 08:45:27;;;;;;;6.03;3.55;;;;;;;29.84;53.65;100136.53;6214373;23;20083;-83
2022/06/28 08:47:55;;;;;;;6.90;3.58;;;;;;;29.88;53.59;100145.53;6214306;23;20015;-83
2022/06/28 08:50:39;;;;;;;7.38;3.60;;;;;;;29.83;53.86;100138.63;6214085;23;20429;-83
2022/06/28 08:53:07;;;;;;;6.28;3.40;;;;;;;29.62;54.75;100140.88;6213881;23;20021;-83
2022/06/28 08:55:34;;;;;;;5.10;3.33;;;;;;;29.87;54.92;100138.28;6214289;23;20430;-83
2022/06/28 08:58:01;;;;;;;5.55;3.55;;;;;;;29.61;55.33;100137.25;6213882;23;20070;-83
2022/06/28 09:00:27;;;;;;;7.88;3.60;;;;;;;29.86;54.91;100137.50;6213808;23;20017;-84
2022/06/28 09:02:53;;;;;;;8.73;3.70;;;;;;;29.83;55.97;100149.31;6214072;23;20456;-84
2022/06/28 09:05:23;;;;;;;6.65;3.50;;;;;;;29.94;55.83;100149.72;6213737;23;20005;-83
2022/06/28 09:07:50;;;;;;;7.13;3.53;;;;;;;29.87;53.65;100152.59;6214121;23;20020;-83
2022/06/28 09:10:17;;;;;;;5.53;3.70;;;;;;;30.12;54.02;100155.66;6187119;23;20087;-83
2022/06/28 09:12:42;;;;;;;6.00;3.50;;;;;;;30.21;53.48;100150.13;6213704;23;20019;-83
2022/06/28 09:15:08;;;;;;;6.50;3.80;;;;;;;30.44;52.63;100162.38;6213376;23;20345;-83
2022/06/28 09:17:34;;;;;;;6.68;3.72;;;;;;;29.94;53.83;100154.69;6214161;23;20011;-83
2022/06/28 09:20:04;;;;;;;4.25;3.50;;;;;;;30.23;53.89;100166.72;6213788;23;20354;-83
2022/06/28 09:22:43;;;;;;;6.93;3.70;;;;;;;30.50;54.77;100159.31;6213918;23;20020;-83
2022/06/28 09:25:26;;;;;;;9.70;3.60;;;;;;;31.03;52.54;100159.25;6186970;23;20348;-83
2022/06/28 09:27:56;;;;;;;5.38;3.90;;;;;;;30.98;52.01;100165.91;6212913;23;20337;-83
2022/06/28 09:30:22;;;;;;;6.35;3.65;;;;;;;31.14;51.60;100163.81;6213339;23;20039;-83
2022/06/28 09:32:48;;;;;;;6.60;3.83;;;;;;;31.46;51.11;100161.75;6213668;23;20322;-83
2022/06/28 09:35:13;;;;;;;7.75;4.05;;;;;;;31.42;50.02;100161.38;6187121;23;20318;-84
2022/06/28 09:40:18;;;;;;;8.15;4.10;;;;;;;30.77;52.09;100153.94;6213203;23;20013;-84
2022/06/28 09:42:45;;;;;;;6.40;3.45;;;;;;;30.98;50.55;100151.56;6213620;23;20011;-84
2022/06/28 09:45:12;;;;;;;9.73;3.55;;;;;;;31.34;50.87;100152.06;6213535;23;20091;-83
2022/06/28 09:47:46;;;;;;;6.65;3.70;;;;;;;31.78;50.58;100148.81;6213629;23;20005;-84
2022/06/28 09:50:13;;;;;;;8.77;3.70;;;;;;;31.81;49.77;100148.41;6213095;23;20035;-83
2022/06/28 09:52:42;;;;;;;7.05;4.30;;;;;;;31.28;49.84;100140.06;6187047;23;20074;-84
2022/06/28 09:55:08;;;;;;;7.35;3.75;;;;;;;31.54;49.75;100138.06;6187132;23;20022;-83
2022/06/28 09:57:34;;;;;;;6.88;3.60;;;;;;;31.89;48.45;100142.59;6213760;23;20044;-83
2022/06/28 10:00:00;;;;;;;6.63;4.03;;;;;;;32.25;48.25;100136.44;6212958;23;20059;-83
2022/06/28 10:02:27;;;;;;;7.13;3.60;;;;;;;32.49;48.74;100135.63;6213227;23;20004;-82
2022/06/28 10:04:52;;;;;;;5.82;3.75;;;;;;;32.72;46.79;100139.06;6213461;23;20043;-84
2022/06/28 10:07:19;;;;;;;7.70;3.72;;;;;;;32.42;46.11;100150.06;6186812;23;20008;-83
2022/06/28 10:09:45;;;;;;;6.88;3.90;;;;;;;32.50;47.49;100136.41;6186969;23;20023;-83
2022/06/28 10:15:08;;;;;;;6.00;3.90;;;;;;;33.01;48.28;100130.72;6212847;23;20023;-84
2022/06/28 10:17:42;;;;;;;4.75;3.47;;;;;;;32.81;46.21;100126.91;6213746;23;20337;-83
2022/06/28 10:20:10;;;;;;;10.65;4.00;;;;;;;32.74;46.94;100132.75;6212951;23;20040;-83
2022/06/28 10:22:36;;;;;;;6.82;3.70;;;;;;;32.66;47.03;100127.09;6213640;23;20005;-83
2022/06/28 10:25:03;;;;;;;10.13;3.88;;;;;;;33.05;47.61;100136.03;6186677;23;20092;-83
2022/06/28 10:27:29;;;;;;;6.07;3.33;;;;;;;32.75;48.00;100131.41;6186401;23;20019;-83
2022/06/28 10:29:58;;;;;;;9.10;3.88;;;;;;;32.91;46.91;100127.00;6186224;23;20030;-83
2022/06/28 10:32:42;;;;;;;7.00;4.13;;;;;;;32.28;47.61;100129.50;6186305;23;20016;-84
2022/06/28 10:35:07;;;;;;;5.50;4.03;;;;;;;32.39;47.71;100135.53;6212550;23;20073;-84
2022/06/28 10:37:33;;;;;;;7.32;3.60;;;;;;;32.77;47.18;100135.19;6213105;23;20016;-83
2022/06/28 10:40:24;;;;;;;8.07;3.90;;;;;;;33.16;46.81;100130.56;6186443;23;20048;-83
2022/06/28 10:42:51;;;;;;;8.93;3.53;;;;;;;32.57;47.19;100126.94;6213107;23;20013;-83
2022/06/28 10:45:18;;;;;;;6.07;3.67;;;;;;;32.20;45.73;100123.84;6186047;23;20036;-83
2022/06/28 10:48:11;;;;;;;9.48;3.92;;;;;;;32.18;47.14;100114.31;6187251;23;20012;-83
2022/06/28 10:50:57;;;;;;;4.70;3.50;;;;;;;33.02;46.05;100120.75;6213140;23;20016;-83
2022/06/28 10:53:24;;;;;;;5.35;4.10;;;;;;;33.19;44.95;100117.88;6212907;23;20013;-84
2022/06/28 10:56:14;;;;;;;7.45;3.60;;;;;;;33.25;46.21;100127.00;6213088;23;20016;-83
2022/06/28 10:59:02;;;;;;;7.13;3.63;;;;;;;32.97;46.29;100116.00;6186463;23;20032;-83
2022/06/28 11:01:40;;;;;;;5.70;3.60;;;;;;;33.68;45.47;100111.09;6186567;23;20401;-84
2022/06/28 11:04:18;;;;;;;8.07;3.85;;;;;;;33.78;43.55;100108.25;6213118;23;20016;-84
2022/06/28 11:06:56;;;;;;;5.25;3.60;;;;;;;33.95;42.60;100116.81;6213178;23;20024;-84
2022/06/28 11:09:49;;;;;;;6.95;3.60;;;;;;;33.69;44.13;100095.34;6212667;23;20390;-83
2022/06/28 11:12:24;;;;;;;4.97;3.60;;;;;;;33.84;45.61;100100.13;6212695;23;20023;-84
2022/06/28 11:14:56;;;;;;;6.95;3.60;;;;;;;33.47;43.65;100095.66;6161094;23;20020;-83
2022/06/28 11:17:29;;;;;;;5.35;3.75;;;;;;;33.83;43.18;100095.72;6212871;23;20019;-84
2022/06/28 11:19:57;;;;;;;6.05;3.90;;;;;;;33.85;41.25;100084.34;6212734;23;20457;-83
2022/06/28 11:22:30;;;;;;;6.10;3.40;;;;;;;33.73;41.74;100075.53;6213142;23;20346;-84
2022/06/28 11:25:01;;;;;;;9.00;3.67;;;;;;;33.89;40.96;100073.16;6212673;23;20318;-84
2022/06/28 11:27:27;;;;;;;5.30;3.72;;;;;;;33.72;41.13;100076.91;6212766;23;20012;-83
2022/06/28 11:30:00;;;;;;;5.70;3.35;;;;;;;34.08;41.69;100078.25;6212900;23;20412;-83
2022/06/28 11:32:32;;;;;;;5.95;3.38;;;;;;;34.38;41.20;100082.72;6212661;23;20013;-84
2022/06/28 11:34:59;;;;;;;;;;;;;;;34.33;41.63;100075.91;6213426;23;19918;-84
2022/06/28 11:37:25;;;;;;;6.05;3.35;;;;;;;34.32;44.04;100067.88;6212587;23;19912;-84
2022/06/28 11:40:02;;;;;;;4.63;3.78;;;;;;;34.53;43.82;100082.47;6212511;23;20019;-83
2022/06/28 11:42:28;;;;;;;7.10;3.70;;;;;;;34.36;41.57;100076.81;6186255;23;20017;-84
2022/06/28 11:44:55;;;;;;;6.35;3.60;;;;;;;34.02;42.14;100075.66;6212765;23;20008;-83
2022/06/28 11:47:21;;;;;;;4.68;3.53;;;;;;;34.26;42.20;100081.78;6212492;23;20013;-84
2022/06/28 11:50:07;;;;;;;6.20;3.80;;;;;;;33.91;42.20;100063.94;6186544;23;20080;-84
2022/06/28 11:52:33;;;;;;;7.95;3.67;;;;;;;34.06;41.25;100055.81;6188331;23;20031;-84
2022/06/28 11:54:58;;;;;;;8.70;3.80;;;;;;;34.10;42.04;100061.88;6188214;23;20013;-84
2022/06/28 11:57:24;;;;;;;7.47;3.88;;;;;;;33.09;41.43;100056.66;6214789;23;20016;-84
2022/06/28 11:59:54;;;;;;;8.00;3.90;;;;;;;33.54;43.45;100054.53;6214453;23;20482;-84
2022/06/28 12:02:39;;;;;;;4.90;3.55;;;;;;;33.57;42.38;100059.84;6214552;23;20094;-83
2022/06/28 12:05:05;;;;;;;5.72;4.00;;;;;;;33.58;41.32;100043.34;6188012;23;20044;-84
2022/06/28 12:07:39;;;;;;;8.13;3.80;;;;;;;33.62;45.04;100043.66;6214484;23;20059;-84
2022/06/28 12:10:10;;;;;;;7.80;3.88;;;;;;;33.53;42.58;100042.25;6214348;23;20016;-84
2022/06/28 12:12:42;;;;;;;4.80;3.53;;;;;;;33.59;44.08;100033.38;6187647;23;20013;-83
2022/06/28 12:15:08;;;;;;;5.95;3.78;;;;;;;33.70;42.89;100032.81;6214571;23;20015;-84
2022/06/28 12:17:47;;;;;;;6.00;3.80;;;;;;;33.83;41.63;100026.66;6214360;23;20017;-84
2022/06/28 12:20:17;;;;;;;8.98;3.97;;;;;;;33.83;41.21;100041.06;6214207;23;20013;-84
2022/06/28 12:22:42;;;;;;;5.82;3.65;;;;;;;34.04;43.22;100035.53;6214747;23;20096;-84
2022/06/28 12:25:10;;;;;;;6.90;3.85;;;;;;;33.91;42.58;100035.16;6188161;23;20005;-84
2022/06/28 12:27:36;;;;;;;6.22;4.00;;;;;;;34.28;42.44;100038.78;6214543;23;20376;-84
2022/06/28 12:30:03;;;;;;;6.70;3.90;;;;;;;34.35;40.86;100049.38;6213902;23;20028;-84
2022/06/28 12:32:29;;;;;;;7.00;4.22;;;;;;;34.76;41.38;100042.47;6214512;23;20012;-84
2022/06/28 12:34:59;;;;;;;8.85;3.92;;;;;;;33.72;41.88;100048.16;6162671;23;20025;-84
2022/06/28 12:37:25;;;;;;;8.27;3.92;;;;;;;34.03;40.61;100042.63;6214096;23;20480;-84
2022/06/28 12:39:51;;;;;;;6.30;3.88;;;;;;;34.31;42.10;100044.06;6214129;23;20005;-84
2022/06/28 12:42:17;;;;;;;6.40;3.70;;;;;;;34.01;42.79;100050.38;6214047;23;20465;-84
2022/06/28 12:44:43;;;;;;;7.85;3.70;;;;;;;34.04;42.21;100038.41;6214073;23;20005;-84
2022/06/28 12:47:10;;;;;;;6.85;4.00;;;;;;;34.24;42.12;100047.88;6214031;23;20348;-84
2022/06/28 12:49:35;;;;;;;11.93;4.45;;;;;;;34.54;40.90;100044.41;6213756;23;20024;-84
2022/06/28 12:52:01;;;;;;;6.15;3.83;;;;;;;34.40;40.48;100039.69;6214088;23;20019;-84
2022/06/28 12:54:26;;;;;;;7.07;4.13;;;;;;;34.78;41.36;100051.25;6187378;23;20055;-84
2022/06/28 12:56:52;;;;;;;8.32;4.38;;;;;;;34.82;41.60;100042.16;6214090;23;20428;-84
2022/06/28 12:59:17;;;;;;;7.35;3.65;;;;;;;34.14;41.38;100042.03;6213897;23;20017;-84
2022/06/28 13:01:43;;;;;;;6.22;4.30;;;;;;;34.51;40.26;100033.34;6213939;23;20008;-84
2022/06/28 13:04:08;;;;;;;6.10;3.67;;;;;;;34.26;39.51;100039.38;6213901;23;20098;-84
2022/06/28 13:06:35;;;;;;;7.45;4.20;;;;;;;34.38;41.16;100043.16;6213790;23;20008;-84
2022/06/28 13:09:00;;;;;;;7.43;5.30;;;;;;;34.77;39.21;100032.47;6214168;23;20017;-84
2022/06/28 13:11:26;;;;;;;7.43;4.25;;;;;;;33.72;40.65;100035.88;6213687;23;20023;-84
2022/06/28 13:13:52;;;;;;;7.10;4.20;;;;;;;34.59;40.62;100022.41;6214252;23;20472;-84
2022/06/28 13:16:18;;;;;;;6.03;4.05;;;;;;;34.63;41.36;100016.97;6213789;23;20413;-84
2022/06/28 13:18:44;;;;;;;6.35;4.65;;;;;;;34.67;44.00;100017.28;6214043;23;20036;-84
2022/06/28 13:21:10;;;;;;;7.88;3.88;;;;;;;34.69;39.39;100013.81;6186759;23;20020;-84
2022/06/28 13:23:36;;;;;;;7.38;4.20;;;;;;;33.85;40.17;100012.44;6213799;23;20009;-84
2022/06/28 13:26:02;;;;;;;6.32;4.22;;;;;;;33.16;41.83;100004.09;6213711;23;20341;-84
2022/06/28 13:28:27;;;;;;;5.53;4.00;;;;;;;33.69;41.89;100003.28;6214045;23;20441;-83
2022/06/28 13:30:53;;;;;;;7.20;4.95;;;;;;;33.84;41.95;100005.19;6186346;23;20453;-84
2022/06/28 13:33:19;;;;;;;7.03;4.70;;;;;;;34.28;41.09;99995.59;6213510;23;20009;-84
2022/06/28 13:35:45;;;;;;;7.63;4.10;;;;;;;34.27;41.46;100003.47;6186745;23;20015;-84
2022/06/28 13:38:11;;;;;;;5.93;4.07;;;;;;;34.11;41.56;99993.56;6187879;23;20008;-84
2022/06/28 13:40:37;;;;;;;7.60;4.45;;;;;;;33.79;42.04;99997.59;6213259;23;20023;-84
2022/06/28 13:43:32;;;;;;;5.20;4.07;;;;;;;33.99;42.03;99992.63;6213712;23;20004;-84
2022/06/28 13:45:48;;;;;;;6.32;4.18;;;;;;;33.78;42.03;99996.06;6213428;23;20012;-85
2022/06/28 13:48:14;;;;;;;6.55;4.32;;;;;;;34.09;40.75;99987.66;6187476;23;20452;-84
2022/06/28 13:50:40;;;;;;;6.63;4.25;;;;;;;34.01;41.66;99982.03;6213365;23;20016;-84
2022/06/28 13:53:05;;;;;;;6.00;4.13;;;;;;;33.98;41.67;99970.97;6187152;23;19997;-85
2022/06/28 13:55:31;;;;;;;7.28;4.38;;;;;;;33.90;41.47;99971.09;6213618;23;20035;-85
2022/06/28 13:57:56;;;;;;;7.15;4.10;;;;;;;34.28;41.43;99969.69;6213932;23;20005;-85
2022/06/28 14:00:22;;;;;;;6.90;4.10;;;;;;;34.16;40.82;99970.28;6213073;23;20012;-84
2022/06/28 14:02:48;;;;;;;5.65;4.45;;;;;;;34.31;41.88;99971.34;6213465;23;20000;-84
2022/06/28 14:05:13;;;;;;;5.47;4.30;;;;;;;34.65;41.00;99959.53;6186641;23;20095;-84
2022/06/28 14:07:42;;;;;;;7.88;4.20;;;;;;;34.79;40.72;99965.56;6186781;23;20000;-84
2022/06/28 14:10:10;;;;;;;8.25;3.88;;;;;;;34.85;42.37;99958.13;6213380;23;20020;-85
2022/06/28 14:12:36;;;;;;;6.13;4.38;;;;;;;34.30;40.65;99961.19;6212741;23;20004;-84
2022/06/28 14:15:03;;;;;;;6.68;4.07;;;;;;;34.65;40.73;99945.13;6213528;23;20468;-84
2022/06/28 14:17:28;;;;;;;8.13;4.47;;;;;;;34.69;40.94;99953.31;6213233;23;20007;-84